sensor_id;sensor_type;location;lat;lon;timestamp;P1;durP1;ratioP1;P2;durP2;ratioP2
11877;SDS011;5998;42.676;23.268;2023-08-21T00:02:12;6.43;;;5.93;;
11877;SDS011;5998;42.676;23.268;2023-08-21T00:04:39;7.00;;;6.13;;
11877;SDS011;5998;42.676;23.268;2023-08-21T00:07:05;7.70;;;5.83;;
11877;SDS011;5998;42.676;23.268;2023-08-21T00:09:34;6.77;;;6.23;;
11877;SDS011;5998;42.676;23.268;2023-08-21T00:12:00;8.13;;;6.13;;
11877;SDS011;5998;42.676;23.268;2023-08-21T00:14:27;6.77;;;6.17;;
11877;SDS011;5998;42.676;23.268;2023-08-21T00:16:53;6.40;;;5.80;;
11877;SDS011;5998;42.676;23.268;2023-08-21T00:19:21;7.03;;;6.00;;
11877;SDS011;5998;42.676;23.268;2023-08-21T00:21:47;7.30;;;5.73;;
11877;SDS011;5998;42.676;23.268;2023-08-21T00:24:14;7.40;;;6.00;;
11877;SDS011;5998;42.676;23.268;2023-08-21T00:26:40;6.97;;;5.83;;
11877;SDS011;5998;42.676;23.268;2023-08-21T00:29:07;5.97;;;5.47;;
11877;SDS011;5998;42.676;23.268;2023-08-21T00:31:33;7.57;;;5.93;;
11877;SDS011;5998;42.676;23.268;2023-08-21T00:34:00;6.90;;;6.20;;
11877;SDS011;5998;42.676;23.268;2023-08-21T00:36:27;6.97;;;6.37;;
11877;SDS011;5998;42.676;23.268;2023-08-21T00:38:54;6.50;;;5.90;;
11877;SDS011;5998;42.676;23.268;2023-08-21T00:41:20;8.57;;;6.30;;
11877;SDS011;5998;42.676;23.268;2023-08-21T00:43:47;6.57;;;5.97;;
11877;SDS011;5998;42.676;23.268;2023-08-21T00:46:13;6.87;;;5.73;;
11877;SDS011;5998;42.676;23.268;2023-08-21T00:48:40;6.50;;;6.00;;
11877;SDS011;5998;42.676;23.268;2023-08-21T00:51:07;7.63;;;6.23;;
11877;SDS011;5998;42.676;23.268;2023-08-21T00:53:35;7.80;;;6.10;;
11877;SDS011;5998;42.676;23.268;2023-08-21T00:56:01;7.90;;;6.50;;
11877;SDS011;5998;42.676;23.268;2023-08-21T00:58:28;7.00;;;6.23;;
11877;SDS011;5998;42.676;23.268;2023-08-21T01:00:54;6.90;;;6.23;;
11877;SDS011;5998;42.676;23.268;2023-08-21T01:03:23;6.77;;;6.17;;
11877;SDS011;5998;42.676;23.268;2023-08-21T01:05:50;9.80;;;6.33;;
11877;SDS011;5998;42.676;23.268;2023-08-21T01:08:17;7.17;;;6.47;;
11877;SDS011;5998;42.676;23.268;2023-08-21T01:10:50;6.43;;;5.83;;
11877;SDS011;5998;42.676;23.268;2023-08-21T01:13:19;6.37;;;5.67;;
11877;SDS011;5998;42.676;23.268;2023-08-21T01:15:48;7.10;;;6.37;;
11877;SDS011;5998;42.676;23.268;2023-08-21T01:18:16;7.97;;;5.60;;
11877;SDS011;5998;42.676;23.268;2023-08-21T01:20:43;6.73;;;6.23;;
11877;SDS011;5998;42.676;23.268;2023-08-21T01:23:10;6.40;;;5.90;;
11877;SDS011;5998;42.676;23.268;2023-08-21T01:25:38;7.70;;;5.83;;
11877;SDS011;5998;42.676;23.268;2023-08-21T01:28:04;6.80;;;6.13;;
11877;SDS011;5998;42.676;23.268;2023-08-21T01:30:31;9.63;;;5.97;;
11877;SDS011;5998;42.676;23.268;2023-08-21T01:32:59;6.07;;;5.53;;
11877;SDS011;5998;42.676;23.268;2023-08-21T01:35:26;6.20;;;5.40;;
11877;SDS011;5998;42.676;23.268;2023-08-21T01:37:53;6.17;;;5.57;;
11877;SDS011;5998;42.676;23.268;2023-08-21T01:40:20;6.30;;;5.70;;
11877;SDS011;5998;42.676;23.268;2023-08-21T01:42:48;7.23;;;6.10;;
11877;SDS011;5998;42.676;23.268;2023-08-21T01:45:15;10.47;;;5.80;;
11877;SDS011;5998;42.676;23.268;2023-08-21T01:47:41;6.87;;;6.10;;
11877;SDS011;5998;42.676;23.268;2023-08-21T01:50:08;6.50;;;5.77;;
11877;SDS011;5998;42.676;23.268;2023-08-21T01:52:35;6.23;;;5.73;;
11877;SDS011;5998;42.676;23.268;2023-08-21T01:55:01;10.60;;;6.30;;
11877;SDS011;5998;42.676;23.268;2023-08-21T01:57:28;6.63;;;6.10;;
11877;SDS011;5998;42.676;23.268;2023-08-21T01:59:56;8.00;;;6.00;;
11877;SDS011;5998;42.676;23.268;2023-08-21T02:02:23;9.33;;;6.20;;
11877;SDS011;5998;42.676;23.268;2023-08-21T02:04:49;7.47;;;5.90;;
11877;SDS011;5998;42.676;23.268;2023-08-21T02:07:15;6.93;;;6.30;;
11877;SDS011;5998;42.676;23.268;2023-08-21T02:09:42;8.10;;;5.50;;
11877;SDS011;5998;42.676;23.268;2023-08-21T02:12:08;6.17;;;5.67;;
11877;SDS011;5998;42.676;23.268;2023-08-21T02:14:35;6.93;;;5.97;;
11877;SDS011;5998;42.676;23.268;2023-08-21T02:17:02;6.57;;;5.97;;
11877;SDS011;5998;42.676;23.268;2023-08-21T02:19:30;7.37;;;5.87;;
11877;SDS011;5998;42.676;23.268;2023-08-21T02:22:00;6.83;;;5.90;;
11877;SDS011;5998;42.676;23.268;2023-08-21T02:24:26;7.63;;;6.83;;
11877;SDS011;5998;42.676;23.268;2023-08-21T02:26:53;8.23;;;6.50;;
11877;SDS011;5998;42.676;23.268;2023-08-21T02:29:19;11.83;;;6.90;;
11877;SDS011;5998;42.676;23.268;2023-08-21T02:31:45;7.80;;;7.00;;
11877;SDS011;5998;42.676;23.268;2023-08-21T02:34:13;10.27;;;6.67;;
11877;SDS011;5998;42.676;23.268;2023-08-21T02:36:40;8.97;;;7.10;;
11877;SDS011;5998;42.676;23.268;2023-08-21T02:39:06;11.53;;;7.50;;
11877;SDS011;5998;42.676;23.268;2023-08-21T02:41:32;10.07;;;7.00;;
11877;SDS011;5998;42.676;23.268;2023-08-21T02:43:59;11.63;;;7.30;;
11877;SDS011;5998;42.676;23.268;2023-08-21T02:46:25;9.07;;;7.07;;
11877;SDS011;5998;42.676;23.268;2023-08-21T02:48:52;12.83;;;7.10;;
11877;SDS011;5998;42.676;23.268;2023-08-21T02:51:19;12.03;;;7.60;;
11877;SDS011;5998;42.676;23.268;2023-08-21T02:53:46;10.93;;;7.40;;
11877;SDS011;5998;42.676;23.268;2023-08-21T02:56:12;8.57;;;7.23;;
11877;SDS011;5998;42.676;23.268;2023-08-21T02:58:39;11.67;;;7.73;;
11877;SDS011;5998;42.676;23.268;2023-08-21T03:01:05;21.97;;;8.90;;
11877;SDS011;5998;42.676;23.268;2023-08-21T03:03:32;11.83;;;8.30;;
11877;SDS011;5998;42.676;23.268;2023-08-21T03:05:59;10.67;;;7.00;;
11877;SDS011;5998;42.676;23.268;2023-08-21T03:08:26;12.70;;;8.13;;
11877;SDS011;5998;42.676;23.268;2023-08-21T03:10:53;11.43;;;7.47;;
11877;SDS011;5998;42.676;23.268;2023-08-21T03:13:19;11.70;;;7.80;;
11877;SDS011;5998;42.676;23.268;2023-08-21T03:15:46;12.90;;;7.70;;
11877;SDS011;5998;42.676;23.268;2023-08-21T03:18:12;12.00;;;7.77;;
11877;SDS011;5998;42.676;23.268;2023-08-21T03:20:43;12.23;;;7.57;;
11877;SDS011;5998;42.676;23.268;2023-08-21T03:23:10;15.10;;;7.57;;
11877;SDS011;5998;42.676;23.268;2023-08-21T03:25:37;13.20;;;7.53;;
11877;SDS011;5998;42.676;23.268;2023-08-21T03:28:04;11.63;;;7.37;;
11877;SDS011;5998;42.676;23.268;2023-08-21T03:30:30;11.87;;;7.03;;
11877;SDS011;5998;42.676;23.268;2023-08-21T03:32:57;7.93;;;6.70;;
11877;SDS011;5998;42.676;23.268;2023-08-21T03:35:23;14.40;;;7.40;;
11877;SDS011;5998;42.676;23.268;2023-08-21T03:37:50;9.60;;;7.10;;
11877;SDS011;5998;42.676;23.268;2023-08-21T03:40:16;8.03;;;7.23;;
11877;SDS011;5998;42.676;23.268;2023-08-21T03:42:44;9.87;;;6.73;;
11877;SDS011;5998;42.676;23.268;2023-08-21T03:45:10;12.03;;;7.17;;
11877;SDS011;5998;42.676;23.268;2023-08-21T03:47:37;12.53;;;7.37;;
11877;SDS011;5998;42.676;23.268;2023-08-21T03:50:04;9.60;;;7.23;;
11877;SDS011;5998;42.676;23.268;2023-08-21T03:52:30;8.97;;;7.20;;
11877;SDS011;5998;42.676;23.268;2023-08-21T03:54:56;14.70;;;8.07;;
11877;SDS011;5998;42.676;23.268;2023-08-21T03:57:23;10.80;;;7.70;;
11877;SDS011;5998;42.676;23.268;2023-08-21T03:59:51;12.93;;;7.40;;
11877;SDS011;5998;42.676;23.268;2023-08-21T04:02:17;11.63;;;7.67;;
11877;SDS011;5998;42.676;23.268;2023-08-21T04:04:43;9.70;;;7.13;;
11877;SDS011;5998;42.676;23.268;2023-08-21T04:07:10;9.30;;;7.43;;
11877;SDS011;5998;42.676;23.268;2023-08-21T04:09:36;13.80;;;8.07;;
11877;SDS011;5998;42.676;23.268;2023-08-21T04:12:03;15.53;;;7.63;;
11877;SDS011;5998;42.676;23.268;2023-08-21T04:14:29;24.87;;;8.83;;
11877;SDS011;5998;42.676;23.268;2023-08-21T04:16:57;15.53;;;8.13;;
11877;SDS011;5998;42.676;23.268;2023-08-21T04:19:23;21.00;;;9.77;;
11877;SDS011;5998;42.676;23.268;2023-08-21T04:21:55;17.97;;;10.73;;
11877;SDS011;5998;42.676;23.268;2023-08-21T04:24:21;11.47;;;7.33;;
11877;SDS011;5998;42.676;23.268;2023-08-21T04:26:47;12.67;;;7.90;;
11877;SDS011;5998;42.676;23.268;2023-08-21T04:29:14;23.03;;;9.53;;
11877;SDS011;5998;42.676;23.268;2023-08-21T04:31:40;14.80;;;8.97;;
11877;SDS011;5998;42.676;23.268;2023-08-21T04:34:08;19.40;;;9.70;;
11877;SDS011;5998;42.676;23.268;2023-08-21T04:36:34;20.90;;;10.97;;
11877;SDS011;5998;42.676;23.268;2023-08-21T04:39:01;24.40;;;11.43;;
11877;SDS011;5998;42.676;23.268;2023-08-21T04:41:27;14.83;;;9.20;;
11877;SDS011;5998;42.676;23.268;2023-08-21T04:43:54;9.43;;;7.47;;
11877;SDS011;5998;42.676;23.268;2023-08-21T04:46:20;11.20;;;8.50;;
11877;SDS011;5998;42.676;23.268;2023-08-21T04:48:47;11.87;;;8.80;;
11877;SDS011;5998;42.676;23.268;2023-08-21T04:51:14;19.80;;;9.77;;
11877;SDS011;5998;42.676;23.268;2023-08-21T04:53:41;13.57;;;9.50;;
11877;SDS011;5998;42.676;23.268;2023-08-21T04:56:07;18.40;;;9.83;;
11877;SDS011;5998;42.676;23.268;2023-08-21T04:58:33;14.80;;;9.30;;
11877;SDS011;5998;42.676;23.268;2023-08-21T05:01:00;17.60;;;10.10;;
11877;SDS011;5998;42.676;23.268;2023-08-21T05:03:26;17.03;;;9.80;;
11877;SDS011;5998;42.676;23.268;2023-08-21T05:05:53;13.17;;;9.23;;
11877;SDS011;5998;42.676;23.268;2023-08-21T05:08:21;14.60;;;9.80;;
11877;SDS011;5998;42.676;23.268;2023-08-21T05:10:48;11.47;;;10.17;;
11877;SDS011;5998;42.676;23.268;2023-08-21T05:13:14;13.27;;;9.40;;
11877;SDS011;5998;42.676;23.268;2023-08-21T05:15:43;17.83;;;9.77;;
11877;SDS011;5998;42.676;23.268;2023-08-21T05:18:09;14.17;;;9.60;;
11877;SDS011;5998;42.676;23.268;2023-08-21T05:20:35;10.00;;;8.67;;
11877;SDS011;5998;42.676;23.268;2023-08-21T05:23:05;12.73;;;8.93;;
11877;SDS011;5998;42.676;23.268;2023-08-21T05:25:33;11.90;;;8.57;;
11877;SDS011;5998;42.676;23.268;2023-08-21T05:28:00;14.67;;;9.27;;
11877;SDS011;5998;42.676;23.268;2023-08-21T05:30:26;9.40;;;8.27;;
11877;SDS011;5998;42.676;23.268;2023-08-21T05:32:52;12.83;;;7.93;;
11877;SDS011;5998;42.676;23.268;2023-08-21T05:35:19;16.37;;;8.60;;
11877;SDS011;5998;42.676;23.268;2023-08-21T05:37:45;20.30;;;7.87;;
11877;SDS011;5998;42.676;23.268;2023-08-21T05:40:12;13.27;;;7.70;;
11877;SDS011;5998;42.676;23.268;2023-08-21T05:42:40;15.90;;;8.70;;
11877;SDS011;5998;42.676;23.268;2023-08-21T05:45:06;13.43;;;8.30;;
11877;SDS011;5998;42.676;23.268;2023-08-21T05:47:33;11.53;;;8.07;;
11877;SDS011;5998;42.676;23.268;2023-08-21T05:50:00;14.87;;;8.17;;
11877;SDS011;5998;42.676;23.268;2023-08-21T05:52:26;9.10;;;8.20;;
11877;SDS011;5998;42.676;23.268;2023-08-21T05:54:53;17.20;;;8.10;;
11877;SDS011;5998;42.676;23.268;2023-08-21T05:57:19;12.20;;;7.57;;
11877;SDS011;5998;42.676;23.268;2023-08-21T05:59:47;14.13;;;8.27;;
11877;SDS011;5998;42.676;23.268;2023-08-21T06:02:13;13.67;;;8.20;;
11877;SDS011;5998;42.676;23.268;2023-08-21T06:04:40;16.87;;;7.67;;
11877;SDS011;5998;42.676;23.268;2023-08-21T06:07:07;17.93;;;7.47;;
11877;SDS011;5998;42.676;23.268;2023-08-21T06:09:34;13.33;;;7.67;;
11877;SDS011;5998;42.676;23.268;2023-08-21T06:12:01;12.43;;;7.97;;
11877;SDS011;5998;42.676;23.268;2023-08-21T06:14:27;11.27;;;7.50;;
11877;SDS011;5998;42.676;23.268;2023-08-21T06:16:56;13.67;;;7.50;;
11877;SDS011;5998;42.676;23.268;2023-08-21T06:19:22;17.67;;;8.07;;
11877;SDS011;5998;42.676;23.268;2023-08-21T06:21:49;15.83;;;7.90;;
11877;SDS011;5998;42.676;23.268;2023-08-21T06:24:15;10.57;;;8.30;;
11877;SDS011;5998;42.676;23.268;2023-08-21T06:26:42;8.20;;;7.13;;
11877;SDS011;5998;42.676;23.268;2023-08-21T06:29:08;11.45;;;6.93;;
11877;SDS011;5998;42.676;23.268;2023-08-21T06:31:34;9.85;;;7.22;;
11877;SDS011;5998;42.676;23.268;2023-08-21T06:34:02;11.07;;;7.13;;
11877;SDS011;5998;42.676;23.268;2023-08-21T06:36:29;10.57;;;7.25;;
11877;SDS011;5998;42.676;23.268;2023-08-21T06:38:55;9.95;;;6.50;;
11877;SDS011;5998;42.676;23.268;2023-08-21T06:41:22;7.60;;;6.47;;
11877;SDS011;5998;42.676;23.268;2023-08-21T06:43:50;14.88;;;7.85;;
11877;SDS011;5998;42.676;23.268;2023-08-21T06:46:16;10.88;;;6.00;;
11877;SDS011;5998;42.676;23.268;2023-08-21T06:48:43;8.27;;;5.95;;
11877;SDS011;5998;42.676;23.268;2023-08-21T06:51:10;11.75;;;6.30;;
11877;SDS011;5998;42.676;23.268;2023-08-21T06:53:37;6.10;;;5.20;;
11877;SDS011;5998;42.676;23.268;2023-08-21T06:56:03;11.40;;;5.80;;
11877;SDS011;5998;42.676;23.268;2023-08-21T06:58:30;6.03;;;5.00;;
11877;SDS011;5998;42.676;23.268;2023-08-21T07:00:56;9.15;;;5.20;;
11877;SDS011;5998;42.676;23.268;2023-08-21T07:03:23;7.78;;;5.70;;
11877;SDS011;5998;42.676;23.268;2023-08-21T07:05:53;10.90;;;5.65;;
11877;SDS011;5998;42.676;23.268;2023-08-21T07:08:21;7.28;;;5.18;;
11877;SDS011;5998;42.676;23.268;2023-08-21T07:10:47;8.15;;;5.60;;
11877;SDS011;5998;42.676;23.268;2023-08-21T07:13:13;7.03;;;5.63;;
11877;SDS011;5998;42.676;23.268;2023-08-21T07:15:40;5.57;;;5.07;;
11877;SDS011;5998;42.676;23.268;2023-08-21T07:18:06;7.18;;;5.88;;
11877;SDS011;5998;42.676;23.268;2023-08-21T07:20:33;6.75;;;5.20;;
11877;SDS011;5998;42.676;23.268;2023-08-21T07:23:00;5.78;;;5.00;;
11877;SDS011;5998;42.676;23.268;2023-08-21T07:25:27;6.45;;;5.85;;
11877;SDS011;5998;42.676;23.268;2023-08-21T07:27:54;5.50;;;5.00;;
11877;SDS011;5998;42.676;23.268;2023-08-21T07:30:21;6.40;;;4.63;;
11877;SDS011;5998;42.676;23.268;2023-08-21T07:32:48;8.15;;;4.88;;
11877;SDS011;5998;42.676;23.268;2023-08-21T07:35:15;6.38;;;5.22;;
11877;SDS011;5998;42.676;23.268;2023-08-21T07:37:43;7.45;;;5.60;;
11877;SDS011;5998;42.676;23.268;2023-08-21T07:40:09;6.82;;;5.32;;
11877;SDS011;5998;42.676;23.268;2023-08-21T07:42:37;8.45;;;6.20;;
11877;SDS011;5998;42.676;23.268;2023-08-21T07:45:05;6.03;;;5.28;;
11877;SDS011;5998;42.676;23.268;2023-08-21T07:47:32;5.43;;;4.88;;
11877;SDS011;5998;42.676;23.268;2023-08-21T07:49:58;6.68;;;5.40;;
11877;SDS011;5998;42.676;23.268;2023-08-21T07:52:25;9.38;;;5.55;;
11877;SDS011;5998;42.676;23.268;2023-08-21T07:54:51;8.27;;;5.70;;
11877;SDS011;5998;42.676;23.268;2023-08-21T07:57:18;5.75;;;5.22;;
11877;SDS011;5998;42.676;23.268;2023-08-21T07:59:46;5.65;;;5.15;;
11877;SDS011;5998;42.676;23.268;2023-08-21T08:02:12;10.27;;;5.50;;
11877;SDS011;5998;42.676;23.268;2023-08-21T08:04:39;6.85;;;5.70;;
11877;SDS011;5998;42.676;23.268;2023-08-21T08:07:05;6.85;;;5.45;;
11877;SDS011;5998;42.676;23.268;2023-08-21T08:09:31;8.50;;;5.43;;
11877;SDS011;5998;42.676;23.268;2023-08-21T08:11:58;10.95;;;6.38;;
11877;SDS011;5998;42.676;23.268;2023-08-21T08:14:24;7.32;;;5.80;;
11877;SDS011;5998;42.676;23.268;2023-08-21T08:16:52;9.52;;;5.70;;
11877;SDS011;5998;42.676;23.268;2023-08-21T08:19:18;10.40;;;5.88;;
11877;SDS011;5998;42.676;23.268;2023-08-21T08:21:45;7.63;;;5.68;;
11877;SDS011;5998;42.676;23.268;2023-08-21T08:24:12;7.32;;;5.70;;
11877;SDS011;5998;42.676;23.268;2023-08-21T08:26:38;8.07;;;5.70;;
11877;SDS011;5998;42.676;23.268;2023-08-21T08:29:05;14.32;;;6.45;;
11877;SDS011;5998;42.676;23.268;2023-08-21T08:31:32;5.57;;;5.07;;
11877;SDS011;5998;42.676;23.268;2023-08-21T08:34:00;10.25;;;5.35;;
11877;SDS011;5998;42.676;23.268;2023-08-21T08:36:26;7.53;;;4.97;;
11877;SDS011;5998;42.676;23.268;2023-08-21T08:38:53;9.55;;;7.35;;
11877;SDS011;5998;42.676;23.268;2023-08-21T08:41:24;5.53;;;5.03;;
11877;SDS011;5998;42.676;23.268;2023-08-21T08:43:53;5.82;;;5.43;;
11877;SDS011;5998;42.676;23.268;2023-08-21T08:46:21;6.03;;;5.53;;
11877;SDS011;5998;42.676;23.268;2023-08-21T08:48:47;5.85;;;4.97;;
11877;SDS011;5998;42.676;23.268;2023-08-21T08:51:15;8.57;;;5.78;;
11877;SDS011;5998;42.676;23.268;2023-08-21T08:53:42;7.88;;;5.70;;
11877;SDS011;5998;42.676;23.268;2023-08-21T08:56:10;6.35;;;5.20;;
11877;SDS011;5998;42.676;23.268;2023-08-21T08:58:36;5.30;;;4.63;;
11877;SDS011;5998;42.676;23.268;2023-08-21T09:01:03;8.32;;;5.65;;
11877;SDS011;5998;42.676;23.268;2023-08-21T09:03:29;7.13;;;5.43;;
11877;SDS011;5998;42.676;23.268;2023-08-21T09:05:55;8.15;;;5.13;;
11877;SDS011;5998;42.676;23.268;2023-08-21T09:08:26;7.75;;;5.88;;
11877;SDS011;5998;42.676;23.268;2023-08-21T09:10:53;5.63;;;5.20;;
11877;SDS011;5998;42.676;23.268;2023-08-21T09:13:20;6.32;;;5.72;;
11877;SDS011;5998;42.676;23.268;2023-08-21T09:15:47;11.45;;;5.55;;
11877;SDS011;5998;42.676;23.268;2023-08-21T09:18:13;9.00;;;5.63;;
11877;SDS011;5998;42.676;23.268;2023-08-21T09:20:40;6.97;;;5.50;;
11877;SDS011;5998;42.676;23.268;2023-08-21T09:23:06;7.57;;;5.47;;
11877;SDS011;5998;42.676;23.268;2023-08-21T09:25:35;15.15;;;5.25;;
11877;SDS011;5998;42.676;23.268;2023-08-21T09:28:03;8.05;;;5.25;;
11877;SDS011;5998;42.676;23.268;2023-08-21T09:30:32;5.80;;;5.18;;
11877;SDS011;5998;42.676;23.268;2023-08-21T09:33:09;5.97;;;5.13;;
11877;SDS011;5998;42.676;23.268;2023-08-21T09:35:35;5.28;;;4.75;;
11877;SDS011;5998;42.676;23.268;2023-08-21T09:38:02;5.72;;;5.22;;
11877;SDS011;5998;42.676;23.268;2023-08-21T09:40:28;7.43;;;5.22;;
11877;SDS011;5998;42.676;23.268;2023-08-21T09:42:56;9.23;;;5.68;;
11877;SDS011;5998;42.676;23.268;2023-08-21T09:45:24;9.63;;;5.00;;
11877;SDS011;5998;42.676;23.268;2023-08-21T09:47:51;5.63;;;5.13;;
11877;SDS011;5998;42.676;23.268;2023-08-21T09:50:18;8.98;;;5.00;;
11877;SDS011;5998;42.676;23.268;2023-08-21T09:52:44;6.80;;;4.93;;
11877;SDS011;5998;42.676;23.268;2023-08-21T09:55:11;9.88;;;5.03;;
11877;SDS011;5998;42.676;23.268;2023-08-21T09:57:38;5.47;;;4.88;;
11877;SDS011;5998;42.676;23.268;2023-08-21T10:00:06;6.20;;;5.00;;
11877;SDS011;5998;42.676;23.268;2023-08-21T10:02:40;6.40;;;4.55;;
11877;SDS011;5998;42.676;23.268;2023-08-21T10:05:08;8.20;;;5.00;;
11877;SDS011;5998;42.676;23.268;2023-08-21T10:07:35;8.68;;;4.90;;
11877;SDS011;5998;42.676;23.268;2023-08-21T10:10:02;5.90;;;5.13;;
11877;SDS011;5998;42.676;23.268;2023-08-21T10:12:28;6.07;;;4.90;;
11877;SDS011;5998;42.676;23.268;2023-08-21T10:14:55;9.27;;;5.05;;
11877;SDS011;5998;42.676;23.268;2023-08-21T10:17:23;6.00;;;5.07;;
11877;SDS011;5998;42.676;23.268;2023-08-21T10:19:50;6.18;;;4.65;;
11877;SDS011;5998;42.676;23.268;2023-08-21T10:22:20;6.53;;;4.63;;
11877;SDS011;5998;42.676;23.268;2023-08-21T10:25:01;8.88;;;4.82;;
11877;SDS011;5998;42.676;23.268;2023-08-21T10:27:29;5.93;;;4.60;;
11877;SDS011;5998;42.676;23.268;2023-08-21T10:29:58;5.25;;;4.82;;
11877;SDS011;5998;42.676;23.268;2023-08-21T10:32:26;5.40;;;4.78;;
11877;SDS011;5998;42.676;23.268;2023-08-21T10:34:53;7.45;;;4.82;;
11877;SDS011;5998;42.676;23.268;2023-08-21T10:37:19;7.63;;;4.45;;
11877;SDS011;5998;42.676;23.268;2023-08-21T10:39:55;5.93;;;4.75;;
11877;SDS011;5998;42.676;23.268;2023-08-21T10:42:36;7.95;;;4.72;;
11877;SDS011;5998;42.676;23.268;2023-08-21T10:45:09;6.22;;;4.90;;
11877;SDS011;5998;42.676;23.268;2023-08-21T10:47:37;6.93;;;4.50;;
11877;SDS011;5998;42.676;23.268;2023-08-21T10:50:05;5.72;;;4.80;;
11877;SDS011;5998;42.676;23.268;2023-08-21T10:52:34;6.28;;;5.15;;
11877;SDS011;5998;42.676;23.268;2023-08-21T10:55:01;7.97;;;5.18;;
11877;SDS011;5998;42.676;23.268;2023-08-21T10:57:29;5.47;;;4.57;;
11877;SDS011;5998;42.676;23.268;2023-08-21T10:59:56;5.90;;;5.35;;
11877;SDS011;5998;42.676;23.268;2023-08-21T11:02:23;5.65;;;4.90;;
11877;SDS011;5998;42.676;23.268;2023-08-21T11:04:51;5.22;;;4.72;;
11877;SDS011;5998;42.676;23.268;2023-08-21T11:07:18;11.20;;;4.70;;
11877;SDS011;5998;42.676;23.268;2023-08-21T11:09:44;12.27;;;5.68;;
11877;SDS011;5998;42.676;23.268;2023-08-21T11:12:11;5.72;;;4.80;;
11877;SDS011;5998;42.676;23.268;2023-08-21T11:14:38;5.38;;;4.82;;
11877;SDS011;5998;42.676;23.268;2023-08-21T11:17:05;10.10;;;5.13;;
11877;SDS011;5998;42.676;23.268;2023-08-21T11:19:32;5.57;;;4.50;;
11877;SDS011;5998;42.676;23.268;2023-08-21T11:22:00;7.25;;;4.15;;
11877;SDS011;5998;42.676;23.268;2023-08-21T11:24:30;6.45;;;4.70;;
11877;SDS011;5998;42.676;23.268;2023-08-21T11:26:56;7.20;;;4.70;;
11877;SDS011;5998;42.676;23.268;2023-08-21T11:29:23;7.20;;;4.40;;
11877;SDS011;5998;42.676;23.268;2023-08-21T11:31:50;4.95;;;4.47;;
11877;SDS011;5998;42.676;23.268;2023-08-21T11:34:18;9.30;;;4.75;;
11877;SDS011;5998;42.676;23.268;2023-08-21T11:36:44;8.23;;;4.30;;
11877;SDS011;5998;42.676;23.268;2023-08-21T11:39:12;6.85;;;4.72;;
11877;SDS011;5998;42.676;23.268;2023-08-21T11:41:52;8.52;;;4.45;;
11877;SDS011;5998;42.676;23.268;2023-08-21T11:44:18;5.82;;;4.80;;
11877;SDS011;5998;42.676;23.268;2023-08-21T11:46:45;5.18;;;4.35;;
11877;SDS011;5998;42.676;23.268;2023-08-21T11:49:11;6.43;;;4.95;;
11877;SDS011;5998;42.676;23.268;2023-08-21T11:51:38;5.47;;;4.05;;
11877;SDS011;5998;42.676;23.268;2023-08-21T11:54:05;7.70;;;4.68;;
11877;SDS011;5998;42.676;23.268;2023-08-21T11:56:33;7.40;;;4.63;;
11877;SDS011;5998;42.676;23.268;2023-08-21T11:59:01;5.88;;;4.38;;
11877;SDS011;5998;42.676;23.268;2023-08-21T12:01:32;6.65;;;4.88;;
11877;SDS011;5998;42.676;23.268;2023-08-21T12:03:58;9.02;;;4.57;;
11877;SDS011;5998;42.676;23.268;2023-08-21T12:06:25;4.68;;;4.13;;
11877;SDS011;5998;42.676;23.268;2023-08-21T12:08:52;7.60;;;4.40;;
11877;SDS011;5998;42.676;23.268;2023-08-21T12:11:18;7.30;;;4.40;;
11877;SDS011;5998;42.676;23.268;2023-08-21T12:13:46;5.00;;;4.60;;
11877;SDS011;5998;42.676;23.268;2023-08-21T12:16:12;5.78;;;4.55;;
11877;SDS011;5998;42.676;23.268;2023-08-21T12:18:39;5.63;;;4.50;;
11877;SDS011;5998;42.676;23.268;2023-08-21T12:21:05;5.25;;;4.80;;
11877;SDS011;5998;42.676;23.268;2023-08-21T12:23:33;6.38;;;4.95;;
11877;SDS011;5998;42.676;23.268;2023-08-21T12:25:59;6.20;;;4.45;;
11877;SDS011;5998;42.676;23.268;2023-08-21T12:28:25;4.53;;;4.15;;
11877;SDS011;5998;42.676;23.268;2023-08-21T12:30:53;5.40;;;4.35;;
11877;SDS011;5998;42.676;23.268;2023-08-21T12:33:20;7.25;;;4.20;;
11877;SDS011;5998;42.676;23.268;2023-08-21T12:35:46;4.80;;;4.40;;
11877;SDS011;5998;42.676;23.268;2023-08-21T12:38:13;10.52;;;4.88;;
11877;SDS011;5998;42.676;23.268;2023-08-21T12:40:39;4.90;;;4.40;;
11877;SDS011;5998;42.676;23.268;2023-08-21T12:43:06;5.88;;;5.30;;
11877;SDS011;5998;42.676;23.268;2023-08-21T12:45:32;5.18;;;4.35;;
11877;SDS011;5998;42.676;23.268;2023-08-21T12:48:00;7.90;;;4.60;;
11877;SDS011;5998;42.676;23.268;2023-08-21T12:50:26;7.68;;;5.03;;
11877;SDS011;5998;42.676;23.268;2023-08-21T12:52:53;7.50;;;4.72;;
11877;SDS011;5998;42.676;23.268;2023-08-21T12:55:19;5.65;;;5.05;;
11877;SDS011;5998;42.676;23.268;2023-08-21T12:57:46;4.75;;;4.35;;
11877;SDS011;5998;42.676;23.268;2023-08-21T13:00:12;6.47;;;4.82;;
11877;SDS011;5998;42.676;23.268;2023-08-21T13:02:39;5.13;;;4.63;;
11877;SDS011;5998;42.676;23.268;2023-08-21T13:05:07;10.15;;;4.60;;
11877;SDS011;5998;42.676;23.268;2023-08-21T13:07:34;4.65;;;4.18;;
11877;SDS011;5998;42.676;23.268;2023-08-21T13:10:00;5.03;;;4.55;;
11877;SDS011;5998;42.676;23.268;2023-08-21T13:12:27;8.05;;;4.40;;
11877;SDS011;5998;42.676;23.268;2023-08-21T13:14:53;6.28;;;4.55;;
11877;SDS011;5998;42.676;23.268;2023-08-21T13:17:20;5.38;;;4.88;;
11877;SDS011;5998;42.676;23.268;2023-08-21T13:19:46;5.13;;;4.40;;
11877;SDS011;5998;42.676;23.268;2023-08-21T13:22:15;9.52;;;4.45;;
11877;SDS011;5998;42.676;23.268;2023-08-21T13:24:42;6.30;;;4.30;;
11877;SDS011;5998;42.676;23.268;2023-08-21T13:27:08;5.65;;;4.97;;
11877;SDS011;5998;42.676;23.268;2023-08-21T13:29:35;6.50;;;4.75;;
11877;SDS011;5998;42.676;23.268;2023-08-21T13:32:01;5.10;;;4.63;;
11877;SDS011;5998;42.676;23.268;2023-08-21T13:34:28;4.70;;;4.30;;
11877;SDS011;5998;42.676;23.268;2023-08-21T13:36:54;6.22;;;4.65;;
11877;SDS011;5998;42.676;23.268;2023-08-21T13:39:22;5.03;;;4.43;;
11877;SDS011;5998;42.676;23.268;2023-08-21T13:41:49;5.45;;;4.90;;
11877;SDS011;5998;42.676;23.268;2023-08-21T13:44:16;5.88;;;4.65;;
11877;SDS011;5998;42.676;23.268;2023-08-21T13:46:42;5.38;;;4.82;;
11877;SDS011;5998;42.676;23.268;2023-08-21T13:49:08;4.78;;;4.30;;
11877;SDS011;5998;42.676;23.268;2023-08-21T13:51:35;4.88;;;4.38;;
11877;SDS011;5998;42.676;23.268;2023-08-21T13:54:02;5.07;;;4.55;;
11877;SDS011;5998;42.676;23.268;2023-08-21T13:56:29;6.22;;;4.55;;
11877;SDS011;5998;42.676;23.268;2023-08-21T13:58:56;12.05;;;4.70;;
11877;SDS011;5998;42.676;23.268;2023-08-21T14:01:22;6.35;;;4.78;;
11877;SDS011;5998;42.676;23.268;2023-08-21T14:03:49;4.90;;;4.40;;
11877;SDS011;5998;42.676;23.268;2023-08-21T14:06:15;6.05;;;4.53;;
11877;SDS011;5998;42.676;23.268;2023-08-21T14:08:41;7.38;;;4.60;;
11877;SDS011;5998;42.676;23.268;2023-08-21T14:11:08;5.22;;;4.70;;
11877;SDS011;5998;42.676;23.268;2023-08-21T14:13:36;7.05;;;5.05;;
11877;SDS011;5998;42.676;23.268;2023-08-21T14:16:03;6.18;;;4.53;;
11877;SDS011;5998;42.676;23.268;2023-08-21T14:18:29;7.30;;;4.72;;
11877;SDS011;5998;42.676;23.268;2023-08-21T14:20:56;7.80;;;4.85;;
11877;SDS011;5998;42.676;23.268;2023-08-21T14:23:22;4.65;;;4.25;;
11877;SDS011;5998;42.676;23.268;2023-08-21T14:25:49;6.28;;;4.65;;
11877;SDS011;5998;42.676;23.268;2023-08-21T14:28:17;5.43;;;4.93;;
11877;SDS011;5998;42.676;23.268;2023-08-21T14:30:44;5.10;;;4.60;;
11877;SDS011;5998;42.676;23.268;2023-08-21T14:33:12;5.10;;;4.55;;
11877;SDS011;5998;42.676;23.268;2023-08-21T14:35:38;5.45;;;4.35;;
11877;SDS011;5998;42.676;23.268;2023-08-21T14:38:05;5.07;;;4.40;;
11877;SDS011;5998;42.676;23.268;2023-08-21T14:40:31;7.25;;;5.10;;
11877;SDS011;5998;42.676;23.268;2023-08-21T14:42:58;5.18;;;4.72;;